createdAt,value
2022-11-05T00:02:05.671Z,11.40
2022-11-05T00:07:03.812Z,14.90
2022-11-05T00:12:01.812Z,14.77
2022-11-05T00:16:49.857Z,13.48
2022-11-05T00:21:47.860Z,12.70
2022-11-05T00:26:34.773Z,24.13
2022-11-05T00:31:20.629Z,20.35
2022-11-05T00:36:11.305Z,14.10
2022-11-05T00:40:57.311Z,13.82
2022-11-05T00:45:43.031Z,14.07
2022-11-05T00:50:28.988Z,14.27
2022-11-05T00:55:17.446Z,16.42
2022-11-05T01:00:03.338Z,12.50
2022-11-05T01:04:48.993Z,13.25
2022-11-05T01:09:34.631Z,13.48
2022-11-05T01:14:22.887Z,9.20
2022-11-05T01:19:10.352Z,15.60
2022-11-05T01:23:56.490Z,15.38
2022-11-05T01:28:42.539Z,14.10
2022-11-05T01:33:30.943Z,23.40
2022-11-05T01:38:16.917Z,16.05
2022-11-05T01:43:02.632Z,20.02
2022-11-05T01:48:06.679Z,19.85
2022-11-05T01:53:00.513Z,15.85
2022-11-05T01:57:46.283Z,13.07
2022-11-05T02:02:34.231Z,17.92
2022-11-05T02:07:20.692Z,17.38
2022-11-05T02:12:10.200Z,15.05
2022-11-05T02:17:04.308Z,15.00
2022-11-05T02:22:18.675Z,14.85
2022-11-05T02:27:51.271Z,11.60
2022-11-05T02:37:42.360Z,11.20
2022-11-05T02:42:38.512Z,8.90
2022-11-05T02:47:28.867Z,14.02
2022-11-05T02:52:22.151Z,14.80
2022-11-05T02:57:07.818Z,11.40
2022-11-05T03:01:55.063Z,10.30
2022-11-05T03:06:56.948Z,13.07
2022-11-05T03:11:54.203Z,14.73
2022-11-05T03:16:43.429Z,11.65
2022-11-05T03:21:39.373Z,9.95
2022-11-05T03:26:30.104Z,8.23
2022-11-05T03:31:20.137Z,8.35
2022-11-05T03:36:08.812Z,11.25
2022-11-05T03:40:57.944Z,12.55
2022-11-05T03:45:49.665Z,7.32
2022-11-05T03:50:41.927Z,5.75
2022-11-05T03:55:31.867Z,11.55
2022-11-05T04:00:17.463Z,14.73
2022-11-05T04:05:02.478Z,10.93
2022-11-05T04:10:02.703Z,14.20
2022-11-05T04:14:47.967Z,8.75
2022-11-05T04:19:45.292Z,9.27
2022-11-05T04:24:30.552Z,10.25
2022-11-05T04:29:30.598Z,7.45
2022-11-05T04:34:16.414Z,9.63
2022-11-05T04:39:01.426Z,6.85
2022-11-05T04:43:47.255Z,10.35
2022-11-05T04:48:34.870Z,10.00
2022-11-05T04:53:20.129Z,11.75
2022-11-05T04:58:05.110Z,10.05
2022-11-05T05:02:51.792Z,8.27
2022-11-05T05:07:39.476Z,10.23
2022-11-05T05:12:24.934Z,12.85
2022-11-05T05:17:09.938Z,18.00
2022-11-05T05:21:55.364Z,11.77
2022-11-05T05:26:44.727Z,10.30
2022-11-05T05:31:30.028Z,12.80
2022-11-05T05:36:15.037Z,14.38
2022-11-05T05:41:01.988Z,11.55
2022-11-05T05:45:49.650Z,15.82
2022-11-05T05:50:34.924Z,8.30
2022-11-05T05:55:19.958Z,8.13
2022-11-05T06:00:05.266Z,15.27
2022-11-05T06:04:52.869Z,13.00
2022-11-05T06:09:38.149Z,19.35
2022-11-05T06:14:23.146Z,11.43
2022-11-05T06:19:08.644Z,10.77
2022-11-05T06:23:56.379Z,14.85
2022-11-05T06:28:42.292Z,13.18
2022-11-05T06:33:27.587Z,13.43
2022-11-05T06:38:12.839Z,15.88
2022-11-05T06:43:00.490Z,14.00
2022-11-05T06:47:45.766Z,10.45
2022-11-05T06:52:31.604Z,20.70
2022-11-05T06:57:17.646Z,28.20
2022-11-05T07:02:05.355Z,32.50
2022-11-05T07:06:50.991Z,39.75
2022-11-05T07:11:36.301Z,50.72
2022-11-05T07:16:21.276Z,29.67
2022-11-05T07:21:09.363Z,27.73
2022-11-05T07:25:54.334Z,27.25
2022-11-05T07:30:40.060Z,18.10
2022-11-05T07:35:25.571Z,19.92
2022-11-05T07:40:14.386Z,22.88
2022-11-05T07:44:59.358Z,15.98
2022-11-05T07:49:44.612Z,13.60
2022-11-05T07:54:29.620Z,15.63
2022-11-05T07:59:17.492Z,12.55
2022-11-05T08:04:02.498Z,14.05
2022-11-05T08:08:47.799Z,18.42
2022-11-05T08:13:32.830Z,19.58
2022-11-05T08:18:20.991Z,24.50
2022-11-05T08:23:06.025Z,11.55
2022-11-05T08:27:51.350Z,15.48
2022-11-05T08:32:36.646Z,17.33
2022-11-05T08:37:25.109Z,17.25
2022-11-05T08:42:10.395Z,27.60
2022-11-05T08:46:55.619Z,20.17
2022-11-05T08:51:40.895Z,15.13
2022-11-05T08:56:28.587Z,21.90
2022-11-05T09:01:13.929Z,26.83
2022-11-05T09:05:58.988Z,17.05
2022-11-05T09:10:45.469Z,16.55
2022-11-05T09:15:35.607Z,14.23
2022-11-05T09:20:21.147Z,14.20
2022-11-05T09:25:06.552Z,18.05
2022-11-05T09:29:51.840Z,20.25
2022-11-05T09:34:39.486Z,15.85
2022-11-05T09:39:24.771Z,11.95
2022-11-05T09:44:17.018Z,19.40
2022-11-05T09:49:08.860Z,19.30
2022-11-05T09:53:56.755Z,19.40
2022-11-05T09:58:47.096Z,14.13
2022-11-05T10:03:33.659Z,16.30
2022-11-05T10:08:24.246Z,21.67
2022-11-05T10:13:22.314Z,16.23
2022-11-05T10:18:15.491Z,18.08
2022-11-05T10:23:04.653Z,18.95
2022-11-05T10:27:54.811Z,16.17
2022-11-05T10:32:44.123Z,11.30
2022-11-05T10:37:30.448Z,14.98
2022-11-05T10:42:37.887Z,19.58
2022-11-05T10:47:42.964Z,17.92
2022-11-05T10:52:36.240Z,16.95
2022-11-05T10:57:33.660Z,19.80
2022-11-05T11:02:24.807Z,14.55
2022-11-05T11:07:23.694Z,14.80
2022-11-05T11:12:18.451Z,11.73
2022-11-05T11:17:26.956Z,24.13
2022-11-05T11:22:24.053Z,17.13
2022-11-05T11:27:15.718Z,16.40
2022-11-05T11:36:48.996Z,16.60
2022-11-05T11:41:38.602Z,20.90
2022-11-05T11:46:26.328Z,28.52
2022-11-05T11:51:32.791Z,24.38
2022-11-05T11:56:20.620Z,20.40
2022-11-05T12:01:24.554Z,18.70
2022-11-05T12:06:21.340Z,18.60
2022-11-05T12:11:13.225Z,18.60
2022-11-05T12:16:02.054Z,16.95
2022-11-05T12:21:09.003Z,14.60
2022-11-05T12:26:07.811Z,18.58
2022-11-05T12:30:59.023Z,18.67
2022-11-05T12:35:57.802Z,15.60
2022-11-05T12:40:54.346Z,19.88
2022-11-05T12:45:50.155Z,17.23
2022-11-05T12:50:45.304Z,19.55
2022-11-05T12:55:36.183Z,18.75
2022-11-05T13:00:23.754Z,24.13
2022-11-05T13:05:18.395Z,33.85
2022-11-05T13:10:09.130Z,17.67
2022-11-05T13:14:59.035Z,14.57
2022-11-05T13:19:49.269Z,13.18
2022-11-05T13:24:40.820Z,22.23
2022-11-05T13:29:30.587Z,11.10
2022-11-05T13:34:16.361Z,13.63
2022-11-05T13:39:09.390Z,7.95
2022-11-05T13:44:23.066Z,15.73
2022-11-05T13:49:35.983Z,16.23
2022-11-05T13:55:05.008Z,18.33
2022-11-05T14:00:11.154Z,14.52
2022-11-05T14:05:01.543Z,24.30
2022-11-05T14:09:48.662Z,16.95
2022-11-05T14:14:48.197Z,17.98
2022-11-05T14:19:39.184Z,13.27
2022-11-05T14:24:31.453Z,12.32
2022-11-05T14:29:40.279Z,20.52
2022-11-05T14:34:41.756Z,13.52
2022-11-05T14:39:31.894Z,15.85
2022-11-05T14:44:17.296Z,10.13
2022-11-05T14:49:09.460Z,17.50
2022-11-05T14:54:04.028Z,16.67
2022-11-05T14:58:51.951Z,13.20
2022-11-05T15:04:03.343Z,11.43
2022-11-05T15:09:22.227Z,15.18
2022-11-05T15:14:19.599Z,14.93
2022-11-05T15:19:06.353Z,12.15
2022-11-05T15:23:56.551Z,10.45
2022-11-05T15:28:45.166Z,9.88
2022-11-05T15:33:34.476Z,12.88
2022-11-05T15:38:34.212Z,18.52
2022-11-05T15:43:22.343Z,19.27
2022-11-05T15:48:16.427Z,12.75
2022-11-05T15:58:22.916Z,14.13
2022-11-05T16:03:11.521Z,16.45
2022-11-05T16:07:57.304Z,21.42
2022-11-05T16:12:44.955Z,15.95
2022-11-05T16:17:33.839Z,18.60
2022-11-05T16:22:19.058Z,16.45
2022-11-05T16:27:05.923Z,12.95
2022-11-05T16:31:56.822Z,20.58
2022-11-05T16:36:42.105Z,12.20
2022-11-05T16:41:28.587Z,17.35
2022-11-05T16:46:15.674Z,14.20
2022-11-05T16:51:03.425Z,15.25
2022-11-05T16:55:49.538Z,19.33
2022-11-05T17:00:34.562Z,27.40
2022-11-05T17:05:24.197Z,25.65
2022-11-05T17:10:11.948Z,34.83
2022-11-05T17:14:57.206Z,37.80
2022-11-05T17:19:43.050Z,79.70
2022-11-05T17:24:28.351Z,87.70
2022-11-05T17:29:15.960Z,62.75
2022-11-05T17:34:01.895Z,58.72
2022-11-05T17:38:46.891Z,53.22
2022-11-05T17:43:32.156Z,53.75
2022-11-05T17:48:20.554Z,49.78
2022-11-05T17:53:05.817Z,61.60
2022-11-05T17:57:52.520Z,53.83
2022-11-05T18:02:37.651Z,65.35
2022-11-05T18:07:25.679Z,69.63
2022-11-05T18:12:11.039Z,62.65
2022-11-05T18:17:00.287Z,58.38
2022-11-05T18:21:45.583Z,64.27
2022-11-05T18:26:34.790Z,52.38
2022-11-05T18:31:21.993Z,52.30
2022-11-05T18:36:07.681Z,81.95
2022-11-05T18:40:52.695Z,28.73
2022-11-05T18:45:40.596Z,45.35
2022-11-05T18:50:25.587Z,52.35
2022-11-05T18:55:12.075Z,62.83
2022-11-05T18:59:57.119Z,68.13
2022-11-05T19:05:06.768Z,43.80
2022-11-05T19:09:51.331Z,38.30
2022-11-05T19:14:36.905Z,39.13
2022-11-05T19:19:23.341Z,31.27
2022-11-05T19:24:16.685Z,32.65
2022-11-05T19:29:03.780Z,24.50
2022-11-05T19:33:50.325Z,27.30
2022-11-05T19:38:35.988Z,43.63
2022-11-05T19:43:23.627Z,32.72
2022-11-05T19:48:13.496Z,50.42
2022-11-05T19:53:03.067Z,45.70
2022-11-05T19:57:48.359Z,73.65
2022-11-05T20:02:36.076Z,67.43
2022-11-05T20:07:21.411Z,62.67
2022-11-05T20:12:06.721Z,40.13
2022-11-05T20:16:52.451Z,50.15
2022-11-05T20:21:40.528Z,31.70
2022-11-05T20:26:25.912Z,40.08
2022-11-05T20:31:11.760Z,34.60
2022-11-05T20:35:57.208Z,37.40
2022-11-05T20:40:44.852Z,42.63
2022-11-05T20:45:30.520Z,32.47
2022-11-05T20:50:15.858Z,70.72
2022-11-05T20:55:01.287Z,57.75
2022-11-05T20:59:49.179Z,38.85
2022-11-05T21:04:37.237Z,33.50
2022-11-05T21:09:22.498Z,79.78
2022-11-05T21:14:07.466Z,49.85
2022-11-05T21:18:55.384Z,36.58
2022-11-05T21:23:41.843Z,31.90
2022-11-05T21:28:27.124Z,62.65
2022-11-05T21:33:12.295Z,41.92
2022-11-05T21:38:00.575Z,35.53
2022-11-05T21:42:45.844Z,28.17
2022-11-05T21:47:31.548Z,19.75
2022-11-05T21:52:29.171Z,22.08
2022-11-05T21:57:33.444Z,25.10
2022-11-05T22:02:20.792Z,31.10
2022-11-05T22:07:06.544Z,28.58
2022-11-05T22:11:51.941Z,29.67
2022-11-05T22:16:39.787Z,22.25
2022-11-05T22:21:24.794Z,23.60
2022-11-05T22:26:10.054Z,41.28
2022-11-05T22:30:55.045Z,22.17
2022-11-05T22:35:44.751Z,24.48
2022-11-05T22:40:29.921Z,18.00
2022-11-05T22:45:15.179Z,27.98
2022-11-05T22:50:00.163Z,35.95
2022-11-05T22:54:48.037Z,30.45
2022-11-05T22:59:33.012Z,43.15
2022-11-05T23:04:18.617Z,50.72
2022-11-05T23:09:17.194Z,42.92
2022-11-05T23:14:05.504Z,48.45
2022-11-05T23:19:05.763Z,40.50
2022-11-05T23:24:03.764Z,32.28
2022-11-05T23:28:48.738Z,25.08
2022-11-05T23:33:39.553Z,22.10
2022-11-05T23:38:38.200Z,37.03
2022-11-05T23:43:36.309Z,48.60
2022-11-05T23:48:26.489Z,31.33
2022-11-05T23:53:15.175Z,42.30
2022-11-05T23:58:01.099Z,37.90
